createdAt,value
2023-02-06T00:00:55.417Z,101134.69
2023-02-06T00:03:24.399Z,101141.41
2023-02-06T00:05:58.693Z,101134.16
2023-02-06T00:08:29.925Z,101143.66
2023-02-06T00:10:59.022Z,101142.16
2023-02-06T00:13:28.259Z,101128.56
2023-02-06T00:15:57.179Z,101132.56
2023-02-06T00:18:26.875Z,101142.19
2023-02-06T00:20:56.395Z,101132.88
2023-02-06T00:23:25.506Z,101139.56
2023-02-06T00:25:56.930Z,101126.09
2023-02-06T00:29:05.432Z,101127.13
2023-02-06T00:31:35.027Z,101120.72
2023-02-06T00:34:04.635Z,101134.09
2023-02-06T00:36:34.636Z,101135.34
2023-02-06T00:39:03.710Z,101130.47
2023-02-06T00:41:34.209Z,101125.34
2023-02-06T00:44:03.368Z,101113.47
2023-02-06T00:46:32.849Z,101106.53
2023-02-06T00:49:02.209Z,101113.88
2023-02-06T00:51:36.341Z,101115.78
2023-02-06T00:54:05.581Z,101119.97
2023-02-06T00:56:36.723Z,101126.59
2023-02-06T00:59:06.112Z,101125.97
2023-02-06T01:01:35.535Z,101130.84
2023-02-06T01:04:04.375Z,101136.53
2023-02-06T01:06:33.246Z,101142.25
2023-02-06T01:09:02.306Z,101135.94
2023-02-06T01:12:03.427Z,101136.91
2023-02-06T01:14:32.666Z,101127.41
2023-02-06T01:17:02.171Z,101132.88
2023-02-06T01:19:31.538Z,101127.63
2023-02-06T01:22:00.608Z,101124.22
2023-02-06T01:24:29.869Z,101108.72
2023-02-06T01:26:58.853Z,101110.59
2023-02-06T01:29:29.636Z,101108.38
2023-02-06T01:31:59.016Z,101107.06
2023-02-06T01:34:28.673Z,101104.06
2023-02-06T01:36:57.714Z,101105.72
2023-02-06T01:39:27.038Z,101111.31
2023-02-06T01:41:56.164Z,101110.59
2023-02-06T01:44:27.338Z,101117.06
2023-02-06T01:46:59.085Z,101127.31
2023-02-06T01:49:36.848Z,101130.50
2023-02-06T01:52:17.063Z,101133.75
2023-02-06T01:54:55.017Z,101124.34
2023-02-06T01:57:26.997Z,101131.94
2023-02-06T02:00:03.623Z,101137.38
2023-02-06T02:02:49.331Z,101146.78
2023-02-06T02:05:20.753Z,101147.34
2023-02-06T02:08:01.371Z,101147.66
2023-02-06T02:10:33.617Z,101162.84
2023-02-06T02:13:03.266Z,101167.47
2023-02-06T02:15:51.623Z,101156.78
2023-02-06T02:18:47.852Z,101153.38
2023-02-06T02:22:18.733Z,101146.59
2023-02-06T02:25:18.813Z,101139.28
2023-02-06T02:28:23.776Z,101127.41
2023-02-06T02:31:32.942Z,101116.94
2023-02-06T02:34:58.488Z,101101.56
2023-02-06T02:37:41.378Z,101105.59
2023-02-06T02:40:24.467Z,101091.69
2023-02-06T02:43:06.361Z,101100.16
2023-02-06T02:45:44.926Z,101082.19
2023-02-06T02:48:20.884Z,101075.28
2023-02-06T02:50:52.761Z,101062.66
2023-02-06T02:53:23.995Z,101065.16
2023-02-06T02:55:54.356Z,101060.81
2023-02-06T02:58:33.066Z,101060.09
2023-02-06T03:01:10.408Z,101055.53
2023-02-06T03:03:44.942Z,101050.56
2023-02-06T03:07:04.200Z,101048.16
2023-02-06T03:09:51.727Z,101045.16
2023-02-06T03:12:29.998Z,101044.75
2023-02-06T03:15:12.497Z,101052.22
2023-02-06T03:17:50.888Z,101062.44
2023-02-06T03:20:21.845Z,101044.13
2023-02-06T03:22:55.143Z,101042.81
2023-02-06T03:25:34.872Z,101034.22
2023-02-06T03:28:12.830Z,101035.13
2023-02-06T03:30:46.406Z,101040.66
2023-02-06T03:33:20.331Z,101040.66
2023-02-06T03:40:18.594Z,101051.25
2023-02-06T03:42:57.466Z,101050.28
2023-02-06T03:45:32.130Z,101043.97
2023-02-06T03:48:04.854Z,101040.09
2023-02-06T03:50:36.521Z,101049.03
2023-02-06T03:53:06.880Z,101053.75
2023-02-06T03:55:41.891Z,101056.09
2023-02-06T03:58:16.516Z,101058.84
2023-02-06T04:00:48.305Z,101060.88
2023-02-06T04:03:20.131Z,101055.28
2023-02-06T04:06:15.022Z,101049.56
2023-02-06T04:09:58.567Z,101044.50
2023-02-06T04:12:29.195Z,101046.38
2023-02-06T04:14:58.041Z,101041.25
2023-02-06T04:17:43.266Z,101051.56
2023-02-06T04:20:16.706Z,101038.63
2023-02-06T04:22:46.231Z,101036.56
2023-02-06T04:25:15.740Z,101033.75
2023-02-06T04:27:52.693Z,101040.88
2023-02-06T04:30:22.379Z,101041.19
2023-02-06T04:32:56.919Z,101033.78
2023-02-06T04:35:26.463Z,101043.31
2023-02-06T04:37:56.049Z,101038.81
2023-02-06T04:40:25.346Z,101046.78
2023-02-06T04:43:01.986Z,101044.59
2023-02-06T04:45:31.507Z,101047.16
2023-02-06T04:48:07.160Z,101048.94
2023-02-06T04:50:47.969Z,101062.66
2023-02-06T04:54:13.320Z,101062.66
2023-02-06T04:57:05.534Z,101064.66
2023-02-06T04:59:36.749Z,101065.00
2023-02-06T05:02:06.360Z,101076.53
2023-02-06T05:04:35.976Z,101075.31
2023-02-06T05:07:05.662Z,101074.84
2023-02-06T05:09:40.377Z,101076.63
2023-02-06T05:12:18.013Z,101091.66
2023-02-06T05:14:48.354Z,101086.81
2023-02-06T05:21:48.791Z,101063.69
2023-02-06T05:24:19.912Z,101056.03
2023-02-06T05:26:49.315Z,101051.72
2023-02-06T05:29:49.803Z,101045.69
2023-02-06T05:32:54.279Z,101047.19
2023-02-06T05:35:23.814Z,101051.88
2023-02-06T05:37:53.201Z,101063.84
2023-02-06T05:41:13.741Z,101070.47
2023-02-06T05:43:43.318Z,101082.63
2023-02-06T05:46:14.414Z,101070.19
2023-02-06T05:48:47.159Z,101064.34
2023-02-06T05:51:18.384Z,101062.88
2023-02-06T05:53:56.531Z,101058.47
2023-02-06T05:56:25.644Z,101059.09
2023-02-06T05:58:54.814Z,101061.16
2023-02-06T06:01:26.579Z,101060.66
2023-02-06T06:04:32.839Z,101060.31
2023-02-06T06:07:02.423Z,101045.53
2023-02-06T06:09:31.361Z,101042.56
2023-02-06T06:12:03.320Z,101051.44
2023-02-06T06:14:32.180Z,101054.81
2023-02-06T06:17:03.324Z,101053.13
2023-02-06T06:19:32.299Z,101040.09
2023-02-06T06:22:01.137Z,101031.53
2023-02-06T06:24:30.045Z,101031.00
2023-02-06T06:26:59.554Z,101038.25
2023-02-06T06:29:28.688Z,101035.00
2023-02-06T06:31:57.606Z,101032.19
2023-02-06T06:34:27.966Z,101035.25
2023-02-06T06:36:56.744Z,101031.38
2023-02-06T06:39:25.752Z,101033.59
2023-02-06T06:41:54.793Z,101045.22
2023-02-06T06:44:23.929Z,101046.16
2023-02-06T06:46:53.031Z,101044.28
2023-02-06T06:49:49.841Z,101037.16
2023-02-06T06:52:24.942Z,101046.50
2023-02-06T06:54:54.945Z,101050.50
2023-02-06T06:57:24.834Z,101051.88
2023-02-06T06:59:54.146Z,101046.50
2023-02-06T07:02:22.958Z,101043.41
2023-02-06T07:04:53.133Z,101044.84
2023-02-06T07:07:22.054Z,101047.16
2023-02-06T07:09:50.820Z,101057.25
2023-02-06T07:12:19.734Z,101059.56
2023-02-06T07:14:48.855Z,101058.94
2023-02-06T07:17:17.678Z,101045.50
2023-02-06T07:19:48.301Z,101041.50
2023-02-06T07:22:40.118Z,101044.34
2023-02-06T07:25:09.637Z,101042.97
2023-02-06T07:27:38.522Z,101044.13
2023-02-06T07:30:08.725Z,101036.66
2023-02-06T07:32:37.914Z,101037.31
2023-02-06T07:35:08.303Z,101036.88
2023-02-06T07:37:55.923Z,101030.88
2023-02-06T07:40:27.654Z,101034.53
2023-02-06T07:42:58.155Z,101020.25
2023-02-06T07:45:35.236Z,101030.09
2023-02-06T07:48:06.544Z,101029.91
2023-02-06T07:50:36.202Z,101031.78
2023-02-06T07:53:07.924Z,101029.91
2023-02-06T07:55:39.066Z,101023.56
2023-02-06T07:58:08.170Z,101023.50
2023-02-06T08:00:36.996Z,101027.34
2023-02-06T08:03:06.278Z,101025.69
2023-02-06T08:05:38.932Z,101023.34
2023-02-06T08:08:10.809Z,101034.13
2023-02-06T08:10:40.379Z,101030.47
2023-02-06T08:13:09.291Z,101033.50
2023-02-06T08:15:38.282Z,101035.16
2023-02-06T08:18:09.185Z,101034.00
2023-02-06T08:20:38.033Z,101035.69
2023-02-06T08:23:08.800Z,101033.78
2023-02-06T08:25:37.937Z,101031.66
2023-02-06T08:28:07.461Z,101027.84
2023-02-06T08:30:37.111Z,101026.16
2023-02-06T08:33:06.249Z,101029.41
2023-02-06T08:35:35.751Z,101027.41
2023-02-06T08:38:04.751Z,101026.97
2023-02-06T08:40:35.006Z,101028.13
2023-02-06T08:43:03.836Z,101035.78
2023-02-06T08:45:32.590Z,101036.78
2023-02-06T08:48:01.424Z,101029.63
2023-02-06T08:50:30.258Z,101034.03
2023-02-06T08:53:00.031Z,101024.25
2023-02-06T08:55:28.863Z,101015.28
2023-02-06T08:57:59.031Z,101010.66
2023-02-06T09:00:28.168Z,101010.19
2023-02-06T09:02:57.561Z,101002.63
2023-02-06T09:05:26.519Z,100996.78
2023-02-06T09:07:55.384Z,100998.38
2023-02-06T09:10:27.904Z,100994.28
2023-02-06T09:12:58.546Z,100985.66
2023-02-06T09:15:27.509Z,100969.41
2023-02-06T09:17:56.427Z,100967.97
2023-02-06T09:20:26.670Z,100973.94
2023-02-06T09:22:55.537Z,100969.41
2023-02-06T09:25:24.309Z,100968.19
2023-02-06T09:27:53.237Z,100983.19
2023-02-06T09:30:23.742Z,100979.00
2023-02-06T09:32:52.699Z,100978.78
2023-02-06T09:35:21.432Z,100977.00
2023-02-06T09:37:50.233Z,100980.25
2023-02-06T09:40:27.056Z,100985.25
2023-02-06T09:42:57.593Z,100985.25
2023-02-06T09:45:31.289Z,100984.78
2023-02-06T09:48:16.223Z,100989.84
2023-02-06T09:50:58.127Z,100998.69
2023-02-06T09:53:41.811Z,101002.75
2023-02-06T09:56:22.882Z,101009.47
2023-02-06T09:59:02.885Z,101009.97
2023-02-06T10:01:43.208Z,101007.91
2023-02-06T10:04:47.797Z,101011.88
2023-02-06T10:07:38.814Z,101012.38
2023-02-06T10:10:16.791Z,101007.34
2023-02-06T10:12:55.517Z,101008.06
2023-02-06T10:18:32.203Z,101003.50
2023-02-06T10:21:06.625Z,100989.97
2023-02-06T10:23:47.474Z,100988.88
2023-02-06T10:26:19.080Z,100990.31
2023-02-06T10:28:52.531Z,100983.13
2023-02-06T10:31:55.899Z,100974.50
2023-02-06T10:34:56.333Z,100960.34
2023-02-06T10:37:50.239Z,100954.38
2023-02-06T10:40:36.635Z,100963.81
2023-02-06T10:43:21.091Z,100952.22
2023-02-06T10:46:04.119Z,100959.72
2023-02-06T10:48:42.420Z,100957.34
2023-02-06T10:51:20.951Z,100959.34
2023-02-06T10:53:54.986Z,100966.06
2023-02-06T10:56:29.935Z,100971.22
2023-02-06T10:59:03.282Z,100969.22
2023-02-06T11:01:38.632Z,100968.47
2023-02-06T11:04:16.883Z,100966.78
2023-02-06T11:06:47.617Z,100967.25
2023-02-06T11:09:17.217Z,100957.19
2023-02-06T11:11:48.874Z,100962.22
2023-02-06T11:14:28.469Z,100957.66
2023-02-06T11:17:01.599Z,100958.09
2023-02-06T11:19:40.516Z,100948.91
2023-02-06T11:22:26.946Z,100942.28
2023-02-06T11:25:06.192Z,100929.81
2023-02-06T11:27:37.397Z,100922.59
2023-02-06T11:30:26.349Z,100917.31
2023-02-06T11:33:04.646Z,100920.16
2023-02-06T11:35:39.373Z,100929.28
2023-02-06T11:38:25.279Z,100929.47
2023-02-06T11:41:04.849Z,100933.91
2023-02-06T11:43:47.669Z,100938.34
2023-02-06T11:46:40.537Z,100945.81
2023-02-06T11:49:29.581Z,100947.16
2023-02-06T11:52:06.190Z,100964.81
2023-02-06T11:54:56.648Z,100959.69
2023-02-06T11:57:47.297Z,100973.03
2023-02-06T12:00:25.950Z,100969.56
2023-02-06T12:03:03.757Z,100965.13
2023-02-06T12:05:43.647Z,100974.38
2023-02-06T12:09:49.098Z,100967.06
2023-02-06T12:13:07.489Z,100960.53
2023-02-06T12:19:51.062Z,100951.16
2023-02-06T12:22:24.834Z,100947.97
2023-02-06T12:24:56.773Z,100953.03
2023-02-06T12:27:39.263Z,100951.28
2023-02-06T12:30:38.304Z,100958.19
2023-02-06T12:33:17.355Z,100954.44
2023-02-06T12:36:17.548Z,100939.75
2023-02-06T12:38:54.788Z,100931.47
2023-02-06T12:41:59.580Z,100930.25
2023-02-06T12:44:35.213Z,100924.97
2023-02-06T12:47:24.361Z,100928.53
2023-02-06T12:50:01.915Z,100936.38
2023-02-06T12:52:41.706Z,100937.47
2023-02-06T12:55:23.110Z,100941.47
2023-02-06T12:57:57.841Z,100934.06
2023-02-06T13:01:20.830Z,100940.94
2023-02-06T13:03:59.355Z,100933.22
2023-02-06T13:06:35.157Z,100932.56
2023-02-06T13:09:09.328Z,100933.91
2023-02-06T13:11:42.753Z,100927.66
2023-02-06T13:14:22.794Z,100920.88
2023-02-06T13:17:00.912Z,100924.38
2023-02-06T13:19:54.843Z,100929.94
2023-02-06T13:22:43.671Z,100932.44
2023-02-06T13:26:10.651Z,100922.88
2023-02-06T13:29:01.510Z,100923.38
2023-02-06T13:32:28.867Z,100917.97
2023-02-06T13:35:15.568Z,100917.81
2023-02-06T13:37:48.511Z,100919.19
2023-02-06T13:40:32.303Z,100918.34
2023-02-06T13:43:10.508Z,100922.53
2023-02-06T13:46:12.306Z,100924.72
2023-02-06T13:49:30.041Z,100926.72
2023-02-06T13:52:16.408Z,100926.28
2023-02-06T13:55:06.014Z,100931.28
2023-02-06T13:58:05.106Z,100942.34
2023-02-06T14:00:44.397Z,100944.69
2023-02-06T14:03:23.162Z,100945.66
2023-02-06T14:06:04.048Z,100946.94
2023-02-06T14:08:49.620Z,100954.22
2023-02-06T14:12:31.773Z,100958.00
2023-02-06T14:15:29.328Z,100956.47
2023-02-06T14:18:41.785Z,100963.75
2023-02-06T14:21:28.503Z,100970.00
2023-02-06T14:24:51.040Z,100966.66
2023-02-06T14:27:55.062Z,100968.00
2023-02-06T14:30:44.221Z,100977.34
2023-02-06T14:33:42.873Z,100983.06
2023-02-06T14:36:44.714Z,100975.59
2023-02-06T14:39:41.203Z,100975.28
2023-02-06T14:42:39.720Z,100985.72
2023-02-06T14:45:35.964Z,100985.72
2023-02-06T14:48:07.933Z,100980.00
2023-02-06T14:50:42.282Z,100981.41
2023-02-06T14:53:21.207Z,100985.34
2023-02-06T14:55:50.516Z,100979.50
2023-02-06T14:58:26.525Z,100989.31
2023-02-06T15:01:14.148Z,100995.94
2023-02-06T15:03:43.398Z,101002.38
2023-02-06T15:06:26.944Z,101006.47
2023-02-06T15:08:56.861Z,101010.59
2023-02-06T15:11:32.631Z,101006.03
2023-02-06T15:14:05.310Z,101018.28
2023-02-06T15:16:47.948Z,101036.56
2023-02-06T15:19:21.411Z,101037.88
2023-02-06T15:22:02.294Z,101051.69
2023-02-06T15:25:51.850Z,101055.50
2023-02-06T15:28:27.639Z,101064.16
2023-02-06T15:31:01.833Z,101060.31
2023-02-06T15:33:34.216Z,101065.09
2023-02-06T15:36:05.390Z,101074.69
2023-02-06T15:38:37.479Z,101076.63
2023-02-06T15:41:09.770Z,101073.47
2023-02-06T15:43:39.051Z,101090.72
2023-02-06T15:46:09.457Z,101094.44
2023-02-06T15:48:43.833Z,101094.78
2023-02-06T15:51:24.329Z,101108.91
2023-02-06T15:54:09.800Z,101110.56
2023-02-06T15:56:44.708Z,101102.16
2023-02-06T15:59:24.214Z,101109.34
2023-02-06T16:01:55.572Z,101107.19
2023-02-06T16:04:30.515Z,101121.22
2023-02-06T16:07:08.412Z,101114.34
2023-02-06T16:09:51.128Z,101113.38
2023-02-06T16:12:21.413Z,101123.94
2023-02-06T16:14:58.378Z,101138.50
2023-02-06T16:17:34.792Z,101135.09
2023-02-06T16:20:08.464Z,101138.69
2023-02-06T16:22:40.321Z,101139.63
2023-02-06T16:25:25.862Z,101148.06
2023-02-06T16:27:58.275Z,101146.00
2023-02-06T16:30:31.320Z,101150.56
2023-02-06T16:33:10.673Z,101148.91
2023-02-06T16:35:40.475Z,101153.13
2023-02-06T16:38:12.663Z,101155.00
2023-02-06T16:40:43.214Z,101153.16
2023-02-06T16:43:13.506Z,101147.34
2023-02-06T16:45:42.635Z,101156.69
2023-02-06T16:48:15.148Z,101154.38
2023-02-06T16:50:45.319Z,101153.22
2023-02-06T16:53:21.496Z,101150.28
2023-02-06T16:55:56.173Z,101147.13
2023-02-06T16:58:30.313Z,101156.34
2023-02-06T17:00:59.812Z,101166.28
2023-02-06T17:03:32.572Z,101162.06
2023-02-06T17:06:02.015Z,101164.84
2023-02-06T17:08:39.535Z,101170.94
2023-02-06T17:11:11.406Z,101167.09
2023-02-06T17:13:41.632Z,101176.16
2023-02-06T17:16:17.634Z,101179.72
2023-02-06T17:18:47.558Z,101175.88
2023-02-06T17:21:19.394Z,101185.66
2023-02-06T17:23:49.265Z,101193.00
2023-02-06T17:26:22.609Z,101196.34
2023-02-06T17:28:53.069Z,101195.56
2023-02-06T17:31:23.448Z,101197.63
2023-02-06T17:33:52.373Z,101199.69
2023-02-06T17:36:29.552Z,101197.28
2023-02-06T17:38:59.246Z,101207.75
2023-02-06T17:41:31.383Z,101205.41
2023-02-06T17:44:01.205Z,101207.69
2023-02-06T17:46:31.269Z,101209.91
2023-02-06T17:49:14.679Z,101204.66
2023-02-06T17:51:48.837Z,101210.94
2023-02-06T17:54:22.239Z,101206.25
2023-02-06T17:57:20.582Z,101212.78
2023-02-06T17:59:55.569Z,101213.94
2023-02-06T18:02:25.851Z,101210.28
2023-02-06T18:04:55.654Z,101216.06
2023-02-06T18:07:25.539Z,101224.13
2023-02-06T18:09:54.750Z,101232.28
2023-02-06T18:12:25.083Z,101221.13
2023-02-06T18:14:54.003Z,101228.78
2023-02-06T18:17:38.864Z,101222.38
2023-02-06T18:20:20.695Z,101226.69
2023-02-06T18:22:55.685Z,101231.78
2023-02-06T18:25:26.009Z,101240.69
2023-02-06T18:28:07.750Z,101252.59
2023-02-06T18:30:37.642Z,101250.00
2023-02-06T18:33:06.877Z,101253.31
2023-02-06T18:35:39.585Z,101247.25
2023-02-06T18:38:10.186Z,101239.03
2023-02-06T18:40:39.960Z,101237.50
2023-02-06T18:43:09.475Z,101226.31
2023-02-06T18:45:40.571Z,101227.47
2023-02-06T18:48:12.785Z,101230.47
2023-02-06T18:50:47.726Z,101225.69
2023-02-06T18:53:18.526Z,101226.19
2023-02-06T18:56:00.805Z,101226.66
2023-02-06T18:58:31.438Z,101237.28
2023-02-06T19:01:00.576Z,101240.72
2023-02-06T19:03:29.586Z,101240.84
2023-02-06T19:05:58.501Z,101236.84
2023-02-06T19:08:28.753Z,101232.41
2023-02-06T19:10:58.928Z,101236.84
2023-02-06T19:13:28.008Z,101226.06
2023-02-06T19:16:07.479Z,101225.13
2023-02-06T19:18:41.609Z,101227.22
2023-02-06T19:21:15.794Z,101234.34
2023-02-06T19:23:46.211Z,101217.78
2023-02-06T19:26:17.878Z,101216.94
2023-02-06T19:28:47.036Z,101210.47
2023-02-06T19:31:23.761Z,101221.09
2023-02-06T19:33:55.362Z,101229.59
2023-02-06T19:36:26.070Z,101238.38
2023-02-06T19:38:59.732Z,101240.75
2023-02-06T19:41:34.172Z,101250.88
2023-02-06T19:44:10.995Z,101261.09
2023-02-06T19:46:41.691Z,101262.31
2023-02-06T19:49:12.661Z,101272.94
2023-02-06T19:51:44.846Z,101288.31
2023-02-06T19:54:14.338Z,101304.72
2023-02-06T19:56:47.194Z,101307.84
2023-02-06T19:59:22.984Z,101317.66
2023-02-06T20:01:58.135Z,101316.56
2023-02-06T20:04:32.387Z,101321.09
2023-02-06T20:07:02.911Z,101329.66
2023-02-06T20:09:32.665Z,101323.97
2023-02-06T20:12:02.401Z,101326.19
2023-02-06T20:14:32.591Z,101325.91
2023-02-06T20:17:10.883Z,101326.16
2023-02-06T20:19:40.745Z,101337.16
2023-02-06T20:22:10.828Z,101339.56
2023-02-06T20:24:41.461Z,101347.75
2023-02-06T20:27:14.171Z,101361.34
2023-02-06T20:29:46.063Z,101368.00
2023-02-06T20:32:19.687Z,101379.13
2023-02-06T20:34:49.282Z,101382.88
2023-02-06T20:37:19.288Z,101381.88
2023-02-06T20:39:49.408Z,101365.34
2023-02-06T20:42:19.634Z,101379.22
2023-02-06T20:44:49.553Z,101381.66
2023-02-06T20:47:20.033Z,101369.69
2023-02-06T20:49:53.010Z,101375.34
2023-02-06T20:52:22.436Z,101369.50
2023-02-06T20:54:51.245Z,101373.81
2023-02-06T20:57:22.433Z,101365.50
2023-02-06T20:59:51.139Z,101365.97
2023-02-06T21:02:28.378Z,101364.81
2023-02-06T21:04:57.404Z,101355.16
2023-02-06T21:07:26.768Z,101356.91
2023-02-06T21:09:56.521Z,101352.72
2023-02-06T21:12:25.271Z,101349.50
2023-02-06T21:14:53.994Z,101353.50
2023-02-06T21:17:24.659Z,101352.38
2023-02-06T21:19:59.480Z,101339.06
2023-02-06T21:22:28.200Z,101352.44
2023-02-06T21:24:56.932Z,101343.47
2023-02-06T21:27:25.649Z,101350.06
2023-02-06T21:29:54.476Z,101350.13
2023-02-06T21:32:24.619Z,101347.31
2023-02-06T21:34:53.355Z,101345.28
2023-02-06T21:37:22.646Z,101348.44
2023-02-06T21:39:51.503Z,101340.81
2023-02-06T21:42:26.238Z,101347.19
2023-02-06T21:44:55.016Z,101353.88
2023-02-06T21:47:25.081Z,101350.06
2023-02-06T21:49:53.775Z,101346.47
2023-02-06T21:52:22.601Z,101350.38
2023-02-06T21:54:51.377Z,101348.03
2023-02-06T21:57:20.154Z,101354.72
2023-02-06T21:59:48.821Z,101350.47
2023-02-06T22:02:17.526Z,101349.06
2023-02-06T22:04:47.805Z,101351.81
2023-02-06T22:07:16.862Z,101352.31
2023-02-06T22:09:45.783Z,101353.28
2023-02-06T22:12:14.490Z,101352.72
2023-02-06T22:14:43.203Z,101358.50
2023-02-06T22:17:12.108Z,101359.34
2023-02-06T22:19:40.937Z,101353.47
2023-02-06T22:22:12.609Z,101350.63
2023-02-06T22:24:41.540Z,101348.88
2023-02-06T22:27:10.239Z,101346.63
2023-02-06T22:29:39.113Z,101341.59
2023-02-06T22:32:07.787Z,101348.13
2023-02-06T22:34:36.537Z,101350.75
2023-02-06T22:37:05.337Z,101346.63
2023-02-06T22:39:35.951Z,101346.56
2023-02-06T22:42:04.979Z,101349.34
2023-02-06T22:44:33.699Z,101354.72
2023-02-06T22:47:02.457Z,101353.00
2023-02-06T22:49:31.328Z,101359.00
2023-02-06T22:52:00.047Z,101357.34
2023-02-06T22:54:28.867Z,101352.84
2023-02-06T22:56:58.934Z,101356.94
2023-02-06T22:59:27.919Z,101358.16
2023-02-06T23:01:59.944Z,101360.50
2023-02-06T23:04:34.677Z,101354.06
2023-02-06T23:07:03.570Z,101355.09
2023-02-06T23:09:35.705Z,101358.81
2023-02-06T23:12:09.670Z,101350.69
2023-02-06T23:14:38.637Z,101348.72
2023-02-06T23:17:07.418Z,101347.50
2023-02-06T23:19:36.202Z,101348.78
2023-02-06T23:22:08.014Z,101345.69
2023-02-06T23:24:36.800Z,101358.09
2023-02-06T23:27:06.938Z,101355.81
2023-02-06T23:29:35.685Z,101355.88
2023-02-06T23:32:04.444Z,101358.19
2023-02-06T23:34:33.161Z,101353.53
2023-02-06T23:37:01.860Z,101354.75
2023-02-06T23:39:31.261Z,101363.38
2023-02-06T23:42:00.114Z,101368.00
2023-02-06T23:44:30.212Z,101371.59
2023-02-06T23:46:59.075Z,101362.72
2023-02-06T23:49:27.791Z,101361.81
2023-02-06T23:51:56.463Z,101381.41
2023-02-06T23:54:25.145Z,101376.13
2023-02-06T23:56:55.093Z,101378.91
2023-02-06T23:59:23.806Z,101377.22
